sensor_id;sensor_type;location;lat;lon;timestamp;P1;durP1;ratioP1;P2;durP2;ratioP2
36789;SDS011;22740;52.182;8.780;2024-03-08T00:03:50;18.45;;;12.27;;
36789;SDS011;22740;52.182;8.780;2024-03-08T00:09:53;19.65;;;13.43;;
36789;SDS011;22740;52.182;8.780;2024-03-08T00:15:55;20.30;;;12.50;;
36789;SDS011;22740;52.182;8.780;2024-03-08T00:21:58;21.43;;;13.33;;
36789;SDS011;22740;52.182;8.780;2024-03-08T00:28:00;18.58;;;11.07;;
36789;SDS011;22740;52.182;8.780;2024-03-08T00:34:02;17.25;;;10.15;;
36789;SDS011;22740;52.182;8.780;2024-03-08T00:40:04;22.27;;;11.48;;
36789;SDS011;22740;52.182;8.780;2024-03-08T00:46:08;19.02;;;11.63;;
36789;SDS011;22740;52.182;8.780;2024-03-08T00:52:10;19.67;;;11.25;;
36789;SDS011;22740;52.182;8.780;2024-03-08T00:58:12;19.92;;;11.45;;
36789;SDS011;22740;52.182;8.780;2024-03-08T01:04:14;18.40;;;11.20;;
36789;SDS011;22740;52.182;8.780;2024-03-08T01:10:16;25.58;;;12.65;;
36789;SDS011;22740;52.182;8.780;2024-03-08T01:16:18;19.58;;;11.30;;
36789;SDS011;22740;52.182;8.780;2024-03-08T01:22:21;20.88;;;11.80;;
36789;SDS011;22740;52.182;8.780;2024-03-08T01:28:24;20.23;;;11.68;;
36789;SDS011;22740;52.182;8.780;2024-03-08T01:34:27;23.35;;;12.70;;
36789;SDS011;22740;52.182;8.780;2024-03-08T01:40:30;22.83;;;11.68;;
36789;SDS011;22740;52.182;8.780;2024-03-08T01:46:32;20.20;;;10.98;;
36789;SDS011;22740;52.182;8.780;2024-03-08T01:52:35;22.00;;;12.27;;
36789;SDS011;22740;52.182;8.780;2024-03-08T01:58:38;19.98;;;11.00;;
36789;SDS011;22740;52.182;8.780;2024-03-08T02:04:41;20.08;;;11.82;;
36789;SDS011;22740;52.182;8.780;2024-03-08T02:10:44;24.27;;;11.82;;
36789;SDS011;22740;52.182;8.780;2024-03-08T02:16:46;20.95;;;11.70;;
36789;SDS011;22740;52.182;8.780;2024-03-08T02:22:47;20.13;;;11.70;;
36789;SDS011;22740;52.182;8.780;2024-03-08T02:28:52;17.58;;;11.23;;
36789;SDS011;22740;52.182;8.780;2024-03-08T02:34:57;22.70;;;12.73;;
36789;SDS011;22740;52.182;8.780;2024-03-08T02:41:01;21.65;;;12.23;;
36789;SDS011;22740;52.182;8.780;2024-03-08T02:47:05;18.77;;;11.23;;
36789;SDS011;22740;52.182;8.780;2024-03-08T02:53:07;19.77;;;12.60;;
36789;SDS011;22740;52.182;8.780;2024-03-08T02:59:09;23.38;;;12.77;;
36789;SDS011;22740;52.182;8.780;2024-03-08T03:05:11;23.17;;;12.20;;
36789;SDS011;22740;52.182;8.780;2024-03-08T03:11:13;21.45;;;12.30;;
36789;SDS011;22740;52.182;8.780;2024-03-08T03:17:15;22.58;;;12.43;;
36789;SDS011;22740;52.182;8.780;2024-03-08T03:23:17;21.90;;;12.27;;
36789;SDS011;22740;52.182;8.780;2024-03-08T03:29:22;21.33;;;11.95;;
36789;SDS011;22740;52.182;8.780;2024-03-08T03:35:23;22.55;;;12.90;;
36789;SDS011;22740;52.182;8.780;2024-03-08T03:41:25;25.92;;;12.68;;
36789;SDS011;22740;52.182;8.780;2024-03-08T03:47:27;21.85;;;13.18;;
36789;SDS011;22740;52.182;8.780;2024-03-08T03:53:29;27.33;;;13.98;;
36789;SDS011;22740;52.182;8.780;2024-03-08T03:59:31;23.58;;;13.65;;
36789;SDS011;22740;52.182;8.780;2024-03-08T04:05:33;23.38;;;13.48;;
36789;SDS011;22740;52.182;8.780;2024-03-08T04:11:36;23.67;;;13.63;;
36789;SDS011;22740;52.182;8.780;2024-03-08T04:17:37;25.65;;;13.02;;
36789;SDS011;22740;52.182;8.780;2024-03-08T04:23:40;20.83;;;13.13;;
36789;SDS011;22740;52.182;8.780;2024-03-08T04:29:42;23.42;;;12.32;;
36789;SDS011;22740;52.182;8.780;2024-03-08T04:35:44;24.55;;;12.75;;
36789;SDS011;22740;52.182;8.780;2024-03-08T04:41:47;26.60;;;14.55;;
36789;SDS011;22740;52.182;8.780;2024-03-08T04:47:49;24.58;;;12.35;;
36789;SDS011;22740;52.182;8.780;2024-03-08T04:53:51;25.48;;;13.15;;
36789;SDS011;22740;52.182;8.780;2024-03-08T04:59:53;25.17;;;13.02;;
36789;SDS011;22740;52.182;8.780;2024-03-08T05:05:55;25.75;;;12.60;;
36789;SDS011;22740;52.182;8.780;2024-03-08T05:11:57;24.20;;;13.20;;
36789;SDS011;22740;52.182;8.780;2024-03-08T05:18:00;28.90;;;15.23;;
36789;SDS011;22740;52.182;8.780;2024-03-08T05:24:02;24.58;;;13.38;;
36789;SDS011;22740;52.182;8.780;2024-03-08T05:30:05;24.60;;;13.25;;
36789;SDS011;22740;52.182;8.780;2024-03-08T05:36:07;27.67;;;14.13;;
36789;SDS011;22740;52.182;8.780;2024-03-08T05:42:10;25.00;;;14.60;;
36789;SDS011;22740;52.182;8.780;2024-03-08T05:48:13;24.00;;;13.30;;
36789;SDS011;22740;52.182;8.780;2024-03-08T05:54:15;27.05;;;14.07;;
36789;SDS011;22740;52.182;8.780;2024-03-08T06:00:20;25.30;;;14.05;;
36789;SDS011;22740;52.182;8.780;2024-03-08T06:06:23;30.35;;;14.70;;
36789;SDS011;22740;52.182;8.780;2024-03-08T06:12:26;25.20;;;14.20;;
36789;SDS011;22740;52.182;8.780;2024-03-08T06:18:30;24.52;;;13.88;;
36789;SDS011;22740;52.182;8.780;2024-03-08T06:24:32;24.17;;;13.85;;
36789;SDS011;22740;52.182;8.780;2024-03-08T06:30:37;25.00;;;14.38;;
36789;SDS011;22740;52.182;8.780;2024-03-08T06:36:39;26.13;;;13.80;;
36789;SDS011;22740;52.182;8.780;2024-03-08T06:42:41;27.35;;;14.27;;
36789;SDS011;22740;52.182;8.780;2024-03-08T06:48:44;28.00;;;14.57;;
36789;SDS011;22740;52.182;8.780;2024-03-08T06:54:51;29.40;;;15.30;;
36789;SDS011;22740;52.182;8.780;2024-03-08T07:00:53;25.25;;;14.68;;
36789;SDS011;22740;52.182;8.780;2024-03-08T07:06:59;26.88;;;14.60;;
36789;SDS011;22740;52.182;8.780;2024-03-08T07:13:03;28.30;;;15.07;;
36789;SDS011;22740;52.182;8.780;2024-03-08T07:19:05;31.23;;;15.63;;
36789;SDS011;22740;52.182;8.780;2024-03-08T07:31:11;25.95;;;14.07;;
36789;SDS011;22740;52.182;8.780;2024-03-08T07:37:14;28.23;;;15.63;;
36789;SDS011;22740;52.182;8.780;2024-03-08T07:43:16;28.73;;;16.08;;
36789;SDS011;22740;52.182;8.780;2024-03-08T07:49:18;28.50;;;16.05;;
36789;SDS011;22740;52.182;8.780;2024-03-08T07:55:19;30.88;;;15.85;;
36789;SDS011;22740;52.182;8.780;2024-03-08T08:01:22;29.05;;;16.80;;
36789;SDS011;22740;52.182;8.780;2024-03-08T08:07:24;29.48;;;17.27;;
36789;SDS011;22740;52.182;8.780;2024-03-08T08:13:25;28.00;;;17.08;;
36789;SDS011;22740;52.182;8.780;2024-03-08T08:19:29;27.73;;;17.65;;
36789;SDS011;22740;52.182;8.780;2024-03-08T08:25:31;25.23;;;16.75;;
36789;SDS011;22740;52.182;8.780;2024-03-08T08:31:36;29.42;;;18.60;;
36789;SDS011;22740;52.182;8.780;2024-03-08T08:37:38;25.63;;;16.08;;
36789;SDS011;22740;52.182;8.780;2024-03-08T08:43:41;29.52;;;17.27;;
36789;SDS011;22740;52.182;8.780;2024-03-08T08:49:59;25.38;;;16.63;;
36789;SDS011;22740;52.182;8.780;2024-03-08T08:56:02;26.77;;;16.95;;
36789;SDS011;22740;52.182;8.780;2024-03-08T09:02:04;25.77;;;16.63;;
36789;SDS011;22740;52.182;8.780;2024-03-08T09:08:12;29.75;;;17.17;;
36789;SDS011;22740;52.182;8.780;2024-03-08T09:14:15;27.88;;;16.65;;
36789;SDS011;22740;52.182;8.780;2024-03-08T09:20:16;26.45;;;16.75;;
36789;SDS011;22740;52.182;8.780;2024-03-08T09:26:19;24.80;;;17.00;;
36789;SDS011;22740;52.182;8.780;2024-03-08T09:32:29;26.92;;;16.25;;
36789;SDS011;22740;52.182;8.780;2024-03-08T09:38:31;25.55;;;16.90;;
36789;SDS011;22740;52.182;8.780;2024-03-08T09:44:33;27.55;;;16.20;;
36789;SDS011;22740;52.182;8.780;2024-03-08T09:50:36;34.45;;;19.63;;
36789;SDS011;22740;52.182;8.780;2024-03-08T09:56:38;29.42;;;17.33;;
36789;SDS011;22740;52.182;8.780;2024-03-08T10:02:45;23.65;;;15.57;;
36789;SDS011;22740;52.182;8.780;2024-03-08T10:08:47;23.08;;;15.45;;
36789;SDS011;22740;52.182;8.780;2024-03-08T10:14:49;27.05;;;16.60;;
36789;SDS011;22740;52.182;8.780;2024-03-08T10:21:07;23.17;;;15.35;;
36789;SDS011;22740;52.182;8.780;2024-03-08T10:27:11;26.50;;;16.38;;
36789;SDS011;22740;52.182;8.780;2024-03-08T10:33:13;22.90;;;13.43;;
36789;SDS011;22740;52.182;8.780;2024-03-08T10:39:22;22.02;;;14.60;;
36789;SDS011;22740;52.182;8.780;2024-03-08T10:45:35;23.48;;;13.73;;
36789;SDS011;22740;52.182;8.780;2024-03-08T10:51:37;22.73;;;14.15;;
36789;SDS011;22740;52.182;8.780;2024-03-08T10:57:42;23.33;;;13.60;;
36789;SDS011;22740;52.182;8.780;2024-03-08T11:03:44;20.75;;;13.55;;
36789;SDS011;22740;52.182;8.780;2024-03-08T11:09:49;21.80;;;14.95;;
36789;SDS011;22740;52.182;8.780;2024-03-08T11:15:51;21.95;;;15.35;;
36789;SDS011;22740;52.182;8.780;2024-03-08T11:21:57;23.88;;;14.48;;
36789;SDS011;22740;52.182;8.780;2024-03-08T11:34:22;21.42;;;14.05;;
36789;SDS011;22740;52.182;8.780;2024-03-08T11:40:24;22.92;;;14.55;;
36789;SDS011;22740;52.182;8.780;2024-03-08T11:46:26;21.02;;;13.35;;
36789;SDS011;22740;52.182;8.780;2024-03-08T11:52:29;23.38;;;13.95;;
36789;SDS011;22740;52.182;8.780;2024-03-08T11:58:32;23.33;;;13.60;;
36789;SDS011;22740;52.182;8.780;2024-03-08T12:04:34;25.52;;;14.70;;
36789;SDS011;22740;52.182;8.780;2024-03-08T12:10:37;19.67;;;12.10;;
36789;SDS011;22740;52.182;8.780;2024-03-08T12:16:39;19.98;;;12.95;;
36789;SDS011;22740;52.182;8.780;2024-03-08T12:22:46;21.40;;;12.55;;
36789;SDS011;22740;52.182;8.780;2024-03-08T12:28:47;22.63;;;13.80;;
36789;SDS011;22740;52.182;8.780;2024-03-08T12:34:52;21.20;;;12.55;;
36789;SDS011;22740;52.182;8.780;2024-03-08T12:40:55;25.02;;;13.35;;
36789;SDS011;22740;52.182;8.780;2024-03-08T12:47:02;22.90;;;13.23;;
36789;SDS011;22740;52.182;8.780;2024-03-08T12:53:05;21.27;;;14.00;;
36789;SDS011;22740;52.182;8.780;2024-03-08T12:59:09;21.52;;;13.82;;
36789;SDS011;22740;52.182;8.780;2024-03-08T13:05:11;24.35;;;14.57;;
36789;SDS011;22740;52.182;8.780;2024-03-08T13:11:15;23.83;;;14.55;;
36789;SDS011;22740;52.182;8.780;2024-03-08T13:17:18;20.50;;;13.48;;
36789;SDS011;22740;52.182;8.780;2024-03-08T13:23:20;24.40;;;14.90;;
36789;SDS011;22740;52.182;8.780;2024-03-08T13:29:22;21.80;;;14.20;;
36789;SDS011;22740;52.182;8.780;2024-03-08T13:35:24;23.17;;;13.90;;
36789;SDS011;22740;52.182;8.780;2024-03-08T13:41:28;23.80;;;14.25;;
36789;SDS011;22740;52.182;8.780;2024-03-08T13:47:33;23.85;;;13.60;;
36789;SDS011;22740;52.182;8.780;2024-03-08T13:53:35;22.75;;;14.57;;
36789;SDS011;22740;52.182;8.780;2024-03-08T13:59:37;21.48;;;13.10;;
36789;SDS011;22740;52.182;8.780;2024-03-08T14:05:40;22.80;;;13.55;;
36789;SDS011;22740;52.182;8.780;2024-03-08T14:11:43;19.75;;;12.68;;
36789;SDS011;22740;52.182;8.780;2024-03-08T14:17:54;23.90;;;14.73;;
36789;SDS011;22740;52.182;8.780;2024-03-08T14:23:57;21.40;;;15.07;;
36789;SDS011;22740;52.182;8.780;2024-03-08T14:29:59;25.90;;;15.45;;
36789;SDS011;22740;52.182;8.780;2024-03-08T14:36:01;24.65;;;15.35;;
36789;SDS011;22740;52.182;8.780;2024-03-08T14:42:03;24.25;;;15.20;;
36789;SDS011;22740;52.182;8.780;2024-03-08T14:48:07;25.03;;;15.73;;
36789;SDS011;22740;52.182;8.780;2024-03-08T14:54:09;23.40;;;14.75;;
36789;SDS011;22740;52.182;8.780;2024-03-08T15:00:12;22.38;;;14.23;;
36789;SDS011;22740;52.182;8.780;2024-03-08T15:06:19;23.92;;;13.85;;
36789;SDS011;22740;52.182;8.780;2024-03-08T15:12:22;24.02;;;14.88;;
36789;SDS011;22740;52.182;8.780;2024-03-08T15:18:27;23.48;;;14.38;;
36789;SDS011;22740;52.182;8.780;2024-03-08T15:24:36;20.77;;;14.00;;
36789;SDS011;22740;52.182;8.780;2024-03-08T15:30:38;23.83;;;14.73;;
36789;SDS011;22740;52.182;8.780;2024-03-08T15:36:40;24.65;;;14.63;;
36789;SDS011;22740;52.182;8.780;2024-03-08T15:42:44;23.50;;;15.63;;
36789;SDS011;22740;52.182;8.780;2024-03-08T15:48:46;24.77;;;14.90;;
36789;SDS011;22740;52.182;8.780;2024-03-08T15:54:50;23.58;;;14.88;;
36789;SDS011;22740;52.182;8.780;2024-03-08T16:00:52;22.67;;;15.07;;
36789;SDS011;22740;52.182;8.780;2024-03-08T16:06:54;24.42;;;15.27;;
36789;SDS011;22740;52.182;8.780;2024-03-08T16:12:56;25.17;;;15.48;;
36789;SDS011;22740;52.182;8.780;2024-03-08T16:18:58;23.17;;;14.93;;
36789;SDS011;22740;52.182;8.780;2024-03-08T16:25:00;23.45;;;15.82;;
36789;SDS011;22740;52.182;8.780;2024-03-08T16:31:02;27.40;;;16.13;;
36789;SDS011;22740;52.182;8.780;2024-03-08T16:37:05;28.00;;;16.67;;
36789;SDS011;22740;52.182;8.780;2024-03-08T16:43:07;25.58;;;15.63;;
36789;SDS011;22740;52.182;8.780;2024-03-08T16:49:12;24.83;;;15.65;;
36789;SDS011;22740;52.182;8.780;2024-03-08T16:55:14;30.10;;;17.40;;
36789;SDS011;22740;52.182;8.780;2024-03-08T17:01:16;27.98;;;16.45;;
36789;SDS011;22740;52.182;8.780;2024-03-08T17:07:18;28.42;;;16.30;;
36789;SDS011;22740;52.182;8.780;2024-03-08T17:13:22;27.25;;;16.40;;
36789;SDS011;22740;52.182;8.780;2024-03-08T17:19:25;26.55;;;16.17;;
36789;SDS011;22740;52.182;8.780;2024-03-08T17:25:29;25.08;;;15.85;;
36789;SDS011;22740;52.182;8.780;2024-03-08T17:31:31;27.00;;;16.10;;
36789;SDS011;22740;52.182;8.780;2024-03-08T17:37:35;27.97;;;16.53;;
36789;SDS011;22740;52.182;8.780;2024-03-08T17:43:39;24.80;;;15.40;;
36789;SDS011;22740;52.182;8.780;2024-03-08T17:49:42;26.30;;;16.47;;
36789;SDS011;22740;52.182;8.780;2024-03-08T17:55:44;28.25;;;16.13;;
36789;SDS011;22740;52.182;8.780;2024-03-08T18:01:47;23.35;;;15.02;;
36789;SDS011;22740;52.182;8.780;2024-03-08T18:07:49;27.67;;;16.60;;
36789;SDS011;22740;52.182;8.780;2024-03-08T18:13:51;25.98;;;15.30;;
36789;SDS011;22740;52.182;8.780;2024-03-08T18:19:53;25.90;;;15.98;;
36789;SDS011;22740;52.182;8.780;2024-03-08T18:25:56;27.25;;;15.73;;
36789;SDS011;22740;52.182;8.780;2024-03-08T18:31:58;28.02;;;15.60;;
36789;SDS011;22740;52.182;8.780;2024-03-08T18:38:00;28.80;;;16.63;;
36789;SDS011;22740;52.182;8.780;2024-03-08T18:44:03;27.90;;;15.60;;
36789;SDS011;22740;52.182;8.780;2024-03-08T18:50:06;27.85;;;15.90;;
36789;SDS011;22740;52.182;8.780;2024-03-08T18:56:10;24.25;;;14.95;;
36789;SDS011;22740;52.182;8.780;2024-03-08T19:02:12;28.65;;;15.00;;
36789;SDS011;22740;52.182;8.780;2024-03-08T19:08:15;28.60;;;16.13;;
36789;SDS011;22740;52.182;8.780;2024-03-08T19:14:20;29.58;;;16.40;;
36789;SDS011;22740;52.182;8.780;2024-03-08T19:20:23;26.60;;;15.07;;
36789;SDS011;22740;52.182;8.780;2024-03-08T19:26:27;24.65;;;14.95;;
36789;SDS011;22740;52.182;8.780;2024-03-08T19:32:29;28.48;;;16.30;;
36789;SDS011;22740;52.182;8.780;2024-03-08T19:38:31;28.50;;;16.25;;
36789;SDS011;22740;52.182;8.780;2024-03-08T19:44:33;25.73;;;15.60;;
36789;SDS011;22740;52.182;8.780;2024-03-08T19:50:35;28.10;;;16.63;;
36789;SDS011;22740;52.182;8.780;2024-03-08T19:56:43;30.40;;;15.80;;
36789;SDS011;22740;52.182;8.780;2024-03-08T20:02:46;28.70;;;15.73;;
36789;SDS011;22740;52.182;8.780;2024-03-08T20:08:49;27.03;;;15.93;;
36789;SDS011;22740;52.182;8.780;2024-03-08T20:14:51;30.33;;;15.57;;
36789;SDS011;22740;52.182;8.780;2024-03-08T20:20:54;30.00;;;15.98;;
36789;SDS011;22740;52.182;8.780;2024-03-08T20:26:57;27.73;;;14.93;;
36789;SDS011;22740;52.182;8.780;2024-03-08T20:33:00;27.50;;;14.75;;
36789;SDS011;22740;52.182;8.780;2024-03-08T20:39:06;24.50;;;14.32;;
36789;SDS011;22740;52.182;8.780;2024-03-08T20:45:09;28.27;;;14.27;;
36789;SDS011;22740;52.182;8.780;2024-03-08T20:51:11;21.80;;;12.75;;
36789;SDS011;22740;52.182;8.780;2024-03-08T20:57:14;24.13;;;13.35;;
36789;SDS011;22740;52.182;8.780;2024-03-08T21:03:16;25.95;;;13.75;;
36789;SDS011;22740;52.182;8.780;2024-03-08T21:15:24;22.23;;;12.60;;
36789;SDS011;22740;52.182;8.780;2024-03-08T21:21:26;21.17;;;12.02;;
36789;SDS011;22740;52.182;8.780;2024-03-08T21:27:28;23.60;;;11.90;;
36789;SDS011;22740;52.182;8.780;2024-03-08T21:33:29;21.40;;;11.57;;
36789;SDS011;22740;52.182;8.780;2024-03-08T21:39:31;21.70;;;11.93;;
36789;SDS011;22740;52.182;8.780;2024-03-08T21:45:33;20.23;;;11.70;;
36789;SDS011;22740;52.182;8.780;2024-03-08T21:51:37;23.70;;;11.75;;
36789;SDS011;22740;52.182;8.780;2024-03-08T21:57:47;24.85;;;11.65;;
36789;SDS011;22740;52.182;8.780;2024-03-08T22:03:51;22.27;;;12.27;;
36789;SDS011;22740;52.182;8.780;2024-03-08T22:09:53;21.80;;;11.75;;
36789;SDS011;22740;52.182;8.780;2024-03-08T22:15:55;20.80;;;11.48;;
36789;SDS011;22740;52.182;8.780;2024-03-08T22:21:57;22.42;;;12.45;;
36789;SDS011;22740;52.182;8.780;2024-03-08T22:27:59;26.60;;;12.68;;
36789;SDS011;22740;52.182;8.780;2024-03-08T22:34:01;23.27;;;12.95;;
36789;SDS011;22740;52.182;8.780;2024-03-08T22:40:03;23.17;;;12.35;;
36789;SDS011;22740;52.182;8.780;2024-03-08T22:46:12;23.08;;;12.65;;
36789;SDS011;22740;52.182;8.780;2024-03-08T22:52:15;23.23;;;11.48;;
36789;SDS011;22740;52.182;8.780;2024-03-08T22:58:17;21.98;;;11.80;;
36789;SDS011;22740;52.182;8.780;2024-03-08T23:04:19;17.27;;;10.50;;
36789;SDS011;22740;52.182;8.780;2024-03-08T23:10:20;23.42;;;11.77;;
36789;SDS011;22740;52.182;8.780;2024-03-08T23:16:29;25.63;;;11.98;;
36789;SDS011;22740;52.182;8.780;2024-03-08T23:22:31;23.25;;;11.23;;
36789;SDS011;22740;52.182;8.780;2024-03-08T23:28:33;21.00;;;12.13;;
36789;SDS011;22740;52.182;8.780;2024-03-08T23:34:35;21.02;;;11.57;;
36789;SDS011;22740;52.182;8.780;2024-03-08T23:40:38;25.17;;;12.75;;
36789;SDS011;22740;52.182;8.780;2024-03-08T23:46:40;21.85;;;11.73;;
36789;SDS011;22740;52.182;8.780;2024-03-08T23:52:42;25.08;;;12.60;;
36789;SDS011;22740;52.182;8.780;2024-03-08T23:58:48;20.40;;;11.73;;
